Time;durP1;ratioP1;P1;durP2;ratioP2;P2;SDS_P1;SDS_P2;PMS_P1;PMS_P2;Temp;Humidity;BMP_temperature;BMP_pressure;BME280_temperature;BME280_humidity;BME280_pressure;Samples;Min_cycle;Max_cycle;Signal;HPM_P1;HPM_P2
2023/06/03 00:05:26;;;;;;;1.67;0.80;;;;;;;20.25;52.62;102030.56;20821307;28;20045;-69
2023/06/03 00:15:28;;;;;;;1.08;0.82;;;;;;;20.22;52.05;102022.72;20811054;28;20053;-69
2023/06/03 00:25:31;;;;;;;0.70;0.57;;;;;;;20.21;51.82;102023.72;20819182;28;20046;-69
2023/06/03 00:35:33;;;;;;;1.00;0.70;;;;;;;20.17;51.84;102031.22;20813531;28;20061;-69
2023/06/03 00:45:35;;;;;;;0.77;0.70;;;;;;;20.16;51.24;102034.03;20811161;28;20413;-69
2023/06/03 00:55:37;;;;;;;4.60;0.60;;;;;;;20.14;51.48;102042.28;20812081;28;20562;-69
2023/06/03 01:05:45;;;;;;;0.95;0.70;;;;;;;20.12;51.25;102034.28;20812549;28;20144;-69
2023/06/03 01:15:52;;;;;;;1.02;0.60;;;;;;;20.09;51.19;102034.53;20811127;28;20505;-69
2023/06/03 01:25:57;;;;;;;1.00;0.73;;;;;;;20.08;50.76;102037.34;20804373;28;20077;-69
2023/06/03 01:36:02;;;;;;;0.63;0.55;;;;;;;20.05;50.76;102034.88;20809810;28;20621;-69
2023/06/03 01:46:04;;;;;;;0.70;0.60;;;;;;;20.04;50.10;102052.09;20808125;28;20057;-69
2023/06/03 01:56:06;;;;;;;0.63;0.60;;;;;;;20.03;48.76;102048.53;20816936;28;20049;-69
2023/06/03 02:06:08;;;;;;;0.70;0.50;;;;;;;20.03;49.47;102048.53;20810534;28;20053;-69
2023/06/03 02:16:11;;;;;;;0.80;0.60;;;;;;;20.04;48.96;102042.16;20800699;28;20068;-69
2023/06/03 02:26:13;;;;;;;1.05;0.55;;;;;;;20.05;49.03;102049.28;20810386;28;20049;-69
2023/06/03 02:36:15;;;;;;;0.40;0.40;;;;;;;20.03;48.02;102036.84;20805806;28;20069;-68
2023/06/03 02:46:17;;;;;;;0.43;0.43;;;;;;;20.01;48.06;102039.69;20813939;28;20046;-68
2023/06/03 02:56:18;;;;;;;1.67;0.70;;;;;;;20.01;48.08;102047.81;20820732;28;20056;-69
2023/06/03 03:06:21;;;;;;;0.80;0.60;;;;;;;20.00;47.92;102040.69;20812258;28;20053;-69
2023/06/03 03:16:23;;;;;;;1.05;0.65;;;;;;;19.98;49.43;102048.06;20808929;28;20053;-68
2023/06/03 03:26:26;;;;;;;1.05;0.57;;;;;;;19.93;49.55;102051.13;20826622;28;20470;-68
2023/06/03 03:36:30;;;;;;;1.17;0.60;;;;;;;19.85;50.64;102046.28;20821165;28;20077;-68
2023/06/03 03:46:40;;;;;;;0.75;0.55;;;;;;;19.86;50.85;102056.09;20826423;28;20072;-68
2023/06/03 03:56:42;;;;;;;1.63;0.68;;;;;;;19.80;50.78;102059.28;20824238;28;20045;-68
2023/06/03 04:06:45;;;;;;;0.60;0.60;;;;;;;19.79;51.12;102054.03;20808593;28;20413;-68
2023/06/03 04:16:52;;;;;;;0.65;0.50;;;;;;;19.77;51.29;102056.84;20832954;28;20394;-68
2023/06/03 04:26:59;;;;;;;0.60;0.60;;;;;;;19.74;50.62;102067.88;20741563;28;20053;-68
2023/06/03 04:37:00;;;;;;;0.82;0.60;;;;;;;19.74;51.44;102069.75;20740088;28;20136;-68
2023/06/03 04:47:02;;;;;;;0.40;0.40;;;;;;;19.73;51.39;102074.28;20741202;28;20243;-68
2023/06/03 04:57:04;;;;;;;0.98;0.60;;;;;;;19.71;51.10;102078.94;20740226;28;20465;-68
2023/06/03 05:07:06;;;;;;;0.90;0.60;;;;;;;19.71;51.48;102076.22;20738634;28;20046;-68
2023/06/03 05:17:09;;;;;;;1.27;0.95;;;;;;;19.70;51.40;102066.41;20792770;28;20049;-66
2023/06/03 05:27:11;;;;;;;1.52;0.50;;;;;;;19.68;51.19;102071.94;20788758;28;20158;-66
2023/06/03 05:37:12;;;;;;;0.68;0.55;;;;;;;19.70;51.12;102082.63;20791395;28;20421;-66
2023/06/03 05:47:14;;;;;;;0.82;0.65;;;;;;;19.72;50.63;102086.06;20791074;28;20045;-66
2023/06/03 05:57:17;;;;;;;0.80;0.50;;;;;;;19.75;50.67;102095.78;20809118;28;20049;-66
2023/06/03 06:07:19;;;;;;;0.63;0.60;;;;;;;19.77;50.29;102097.34;20790371;28;20069;-66
2023/06/03 06:17:21;;;;;;;1.27;0.60;;;;;;;19.80;49.31;102097.13;20806200;28;20053;-66
2023/06/03 06:27:23;;;;;;;1.10;0.60;;;;;;;19.86;50.45;102095.78;20825900;28;20050;-66
2023/06/03 06:37:25;;;;;;;1.73;0.60;;;;;;;19.90;49.55;102093.72;20814139;28;20064;-65
2023/06/03 06:47:32;;;;;;;0.50;0.50;;;;;;;19.92;48.98;102108.00;20814297;28;20073;-65
2023/06/03 06:57:35;;;;;;;2.55;0.60;;;;;;;19.95;48.58;102099.66;20813215;28;20088;-65
2023/06/03 07:07:36;;;;;;;0.63;0.50;;;;;;;19.98;48.49;102091.31;20812920;28;20103;-65
2023/06/03 07:17:41;;;;;;;1.20;0.70;;;;;;;20.04;48.58;102090.81;20867862;28;20056;-65
2023/06/03 07:27:44;;;;;;;0.95;0.65;;;;;;;20.13;47.95;102094.63;20892854;28;20123;-65
2023/06/03 07:37:46;;;;;;;1.90;0.57;;;;;;;20.27;48.90;102107.91;20892078;28;20045;-65
2023/06/03 07:47:48;;;;;;;0.47;0.38;;;;;;;20.35;48.08;102107.31;20892031;28;20425;-67
2023/06/03 07:57:51;;;;;;;0.60;0.52;;;;;;;20.34;49.20;102108.28;20908622;28;20053;-67
2023/06/03 08:07:53;;;;;;;0.47;0.40;;;;;;;20.47;48.35;102101.88;20907448;28;20049;-65
2023/06/03 08:17:55;;;;;;;0.95;0.60;;;;;;;21.65;45.09;102105.72;20894424;28;20099;-67
2023/06/03 08:27:57;;;;;;;1.00;0.50;;;;;;;22.86;42.67;102106.00;20906251;28;20127;-67
2023/06/03 08:37:59;;;;;;;2.20;0.57;;;;;;;22.99;41.85;102113.88;20902800;28;20053;-67
2023/06/03 08:48:14;;;;;;;1.52;0.77;;;;;;;23.53;40.38;102108.06;20904617;28;20049;-66
2023/06/03 08:58:25;;;;;;;1.45;0.52;;;;;;;23.55;40.11;102106.03;20902932;28;20051;-67
2023/06/03 09:08:27;;;;;;;0.70;0.50;;;;;;;22.82;40.85;102105.44;20893642;28;20056;-66
2023/06/03 09:18:29;;;;;;;0.80;0.50;;;;;;;22.33;41.62;102097.09;20893935;28;20045;-67
2023/06/03 09:28:33;;;;;;;1.55;0.45;;;;;;;22.07;42.00;102086.72;20901654;28;20045;-66
2023/06/03 09:38:45;;;;;;;1.92;0.55;;;;;;;21.84;42.30;102078.75;20899691;28;20045;-66
2023/06/03 09:48:47;;;;;;;0.68;0.40;;;;;;;21.71;42.34;102084.38;20899178;28;20144;-66
2023/06/03 09:58:51;;;;;;;0.47;0.43;;;;;;;21.58;42.60;102079.13;20900582;28;20045;-67
2023/06/03 10:08:53;;;;;;;;;;;;;;;21.58;42.98;102073.69;20888431;28;20135;-66
2023/06/03 10:18:55;;;;;;;0.73;0.50;;;;;;;21.55;43.24;102078.56;20897943;28;19975;-66
2023/06/03 10:28:58;;;;;;;0.68;0.43;;;;;;;21.53;43.35;102083.25;20840080;28;20050;-66
2023/06/03 10:39:03;;;;;;;0.40;0.40;;;;;;;21.48;43.17;102074.66;20794314;28;20543;-66
2023/06/03 10:49:06;;;;;;;1.13;0.52;;;;;;;21.55;43.12;102076.69;20785298;28;20029;-66
2023/06/03 10:59:09;;;;;;;0.45;0.45;;;;;;;21.56;43.46;102061.31;20806104;28;20108;-66
2023/06/03 11:09:16;;;;;;;0.75;0.43;;;;;;;21.56;43.09;102061.31;20801035;28;20077;-66
2023/06/03 11:19:29;;;;;;;0.38;0.32;;;;;;;21.56;43.25;102064.00;20817587;28;20545;-66
2023/06/03 11:29:52;;;;;;;0.60;0.60;;;;;;;21.56;43.32;102051.31;20796242;28;20680;-67
2023/06/03 11:40:01;;;;;;;0.40;0.40;;;;;;;21.55;43.62;102049.59;20795791;28;20045;-66
2023/06/03 11:50:03;;;;;;;1.75;0.45;;;;;;;21.57;44.06;102058.44;20802965;28;20045;-67
2023/06/03 12:00:10;;;;;;;0.43;0.35;;;;;;;21.53;44.16;102035.31;20802117;28;20081;-67
2023/06/03 12:10:15;;;;;;;3.97;1.23;;;;;;;21.59;44.25;102028.50;20799224;28;20045;-67
2023/06/03 12:20:27;;;;;;;1.67;0.70;;;;;;;21.57;44.34;102014.25;20801063;28;20042;-68
2023/06/03 12:30:33;;;;;;;2.72;1.27;;;;;;;21.56;44.65;102028.78;20803853;28;20095;-68
2023/06/03 12:40:38;;;;;;;2.90;1.30;;;;;;;21.55;44.78;102022.50;20787801;28;20052;-69
2023/06/03 12:50:40;;;;;;;1.80;0.85;;;;;;;21.55;45.28;102008.09;20798944;28;20080;-68
2023/06/03 13:00:41;;;;;;;4.82;2.03;;;;;;;21.55;45.88;101995.41;20800168;28;20111;-69
2023/06/03 13:10:43;;;;;;;4.25;1.55;;;;;;;21.55;46.71;101989.97;20797225;28;20092;-69
2023/06/03 13:20:45;;;;;;;3.28;1.45;;;;;;;21.55;46.91;101984.56;20790856;28;20517;-68
2023/06/03 13:30:49;;;;;;;3.45;1.40;;;;;;;21.53;46.88;101991.97;20788997;28;20111;-68
2023/06/03 13:40:50;;;;;;;3.90;1.63;;;;;;;21.54;46.60;101988.25;20804496;28;20060;-67
2023/06/03 13:50:53;;;;;;;6.60;1.92;;;;;;;21.52;47.08;101975.84;20793736;28;20048;-69
2023/06/03 14:00:54;;;;;;;3.72;1.80;;;;;;;21.50;47.67;101975.97;20790288;28;20543;-69
2023/06/03 14:10:56;;;;;;;5.07;1.58;;;;;;;21.50;48.56;101957.00;20791888;28;20053;-68
2023/06/03 14:20:58;;;;;;;2.90;1.13;;;;;;;21.47;48.18;101960.00;20794931;28;20049;-68
2023/06/03 14:30:59;;;;;;;2.60;1.20;;;;;;;21.45;48.12;101961.97;20799235;28;20049;-70
2023/06/03 14:41:02;;;;;;;3.97;1.23;;;;;;;21.45;49.21;101948.44;20795954;28;20045;-68
2023/06/03 14:51:03;;;;;;;2.63;1.15;;;;;;;21.44;48.59;101950.31;20773573;28;20463;-68
2023/06/03 15:01:05;;;;;;;3.22;1.15;;;;;;;21.43;48.21;101931.47;20801712;28;20545;-65
2023/06/03 15:11:07;;;;;;;2.53;0.90;;;;;;;21.47;49.65;101922.06;20804671;28;20108;-73
2023/06/03 15:21:09;;;;;;;4.53;1.52;;;;;;;21.56;50.24;101914.97;20791508;28;20136;-66
2023/06/03 15:31:10;;;;;;;4.82;2.28;;;;;;;21.67;52.19;101916.78;20787733;28;20045;-67
2023/06/03 15:41:12;;;;;;;5.25;2.10;;;;;;;21.73;52.48;101913.50;20791136;28;20056;-67
2023/06/03 15:51:15;;;;;;;4.95;2.28;;;;;;;21.73;52.41;101910.81;20796839;28;20057;-66
2023/06/03 16:01:19;;;;;;;4.57;2.10;;;;;;;21.69;52.19;101899.38;20807782;28;20096;-68
2023/06/03 16:11:21;;;;;;;4.38;1.88;;;;;;;21.66;51.48;101893.38;20788996;28;20140;-65
2023/06/03 16:21:22;;;;;;;2.17;1.27;;;;;;;21.66;51.64;101893.38;20796249;28;20069;-68
2023/06/03 16:31:24;;;;;;;3.08;1.10;;;;;;;21.60;51.92;101875.78;20794421;28;20708;-73
2023/06/03 16:41:28;;;;;;;1.70;0.90;;;;;;;21.65;51.53;101888.94;20796739;28;20459;-73
2023/06/03 16:51:30;;;;;;;2.10;1.10;;;;;;;21.63;51.40;101885.47;20798695;28;20057;-76
2023/06/03 17:01:31;;;;;;;2.80;0.93;;;;;;;21.58;51.18;101888.59;20822135;28;20081;-76
2023/06/03 17:11:33;;;;;;;2.45;1.08;;;;;;;21.53;50.79;101891.72;20799606;28;20049;-76
2023/06/03 17:21:35;;;;;;;3.88;1.40;;;;;;;21.48;50.13;101896.69;20794570;28;20045;-75
2023/06/03 17:31:36;;;;;;;1.63;0.77;;;;;;;21.43;50.49;101896.25;20797832;28;20476;-74
2023/06/03 17:41:38;;;;;;;2.33;0.80;;;;;;;21.37;50.19;101904.91;20817104;28;20037;-74
2023/06/03 17:51:39;;;;;;;2.55;1.00;;;;;;;21.33;50.08;101898.06;20810379;28;20049;-74
2023/06/03 18:01:41;;;;;;;1.15;0.55;;;;;;;21.30;49.92;101910.88;20819051;28;20045;-74
2023/06/03 18:11:43;;;;;;;1.60;0.90;;;;;;;21.26;49.71;101914.84;20810698;28;20056;-74
2023/06/03 18:21:45;;;;;;;1.40;0.90;;;;;;;21.25;49.57;101920.38;20820694;28;20140;-74
2023/06/03 18:31:47;;;;;;;1.67;0.90;;;;;;;21.23;49.48;101920.53;20823572;28;20466;-74
2023/06/03 18:41:48;;;;;;;1.77;0.70;;;;;;;21.20;49.44;101926.19;20804772;28;20045;-73
2023/06/03 18:51:50;;;;;;;1.05;0.70;;;;;;;21.17;49.39;101926.47;20815194;28;20405;-73
2023/06/03 19:01:52;;;;;;;1.77;0.73;;;;;;;21.16;49.27;101941.00;20813954;28;20051;-72
2023/06/03 19:11:54;;;;;;;1.20;0.80;;;;;;;21.14;51.29;101938.44;20808017;28;20059;-72
2023/06/03 19:21:56;;;;;;;2.05;1.10;;;;;;;21.13;51.73;101955.66;20807092;28;20079;-72
2023/06/03 19:31:59;;;;;;;1.15;0.68;;;;;;;21.11;51.67;101965.78;20808038;28;20254;-72
2023/06/03 19:42:01;;;;;;;1.60;0.82;;;;;;;21.10;51.51;101963.19;20804644;28;20161;-72
2023/06/03 19:52:02;;;;;;;1.10;0.80;;;;;;;21.07;51.27;101963.44;20802243;28;20477;-72
2023/06/03 20:02:04;;;;;;;0.80;0.60;;;;;;;21.05;51.30;101982.53;20805916;28;20056;-72
2023/06/03 20:12:06;;;;;;;1.02;0.73;;;;;;;21.02;50.95;101993.66;20799519;28;20069;-72
2023/06/03 20:22:07;;;;;;;1.15;0.77;;;;;;;20.98;50.75;101986.75;20786718;28;20144;-72
2023/06/03 20:32:09;;;;;;;1.00;0.75;;;;;;;20.97;50.67;102001.25;20804875;28;20049;-72
2023/06/03 20:42:11;;;;;;;1.00;0.68;;;;;;;20.94;50.53;102001.53;20796588;28;20124;-71
2023/06/03 20:52:14;;;;;;;1.20;0.70;;;;;;;20.89;50.50;102010.06;20794747;28;20045;-71
2023/06/03 21:02:15;;;;;;;1.25;0.70;;;;;;;20.85;50.42;102014.00;20802994;28;20049;-72
2023/06/03 21:12:17;;;;;;;1.42;0.60;;;;;;;20.83;50.40;102016.84;20797434;28;20047;-71
2023/06/03 21:22:19;;;;;;;0.95;0.70;;;;;;;20.77;50.17;102005.63;20797337;28;20044;-72
2023/06/03 21:32:21;;;;;;;0.90;0.68;;;;;;;20.78;50.20;102013.63;20795341;28;20042;-71
2023/06/03 21:42:22;;;;;;;0.52;0.43;;;;;;;20.76;50.17;102020.13;20809399;28;20472;-72
2023/06/03 21:52:24;;;;;;;0.50;0.45;;;;;;;20.75;50.08;102018.41;20803271;28;20145;-71
2023/06/03 22:02:25;;;;;;;1.52;0.80;;;;;;;20.70;49.78;102016.97;20806226;28;20057;-71
2023/06/03 22:12:27;;;;;;;1.15;0.60;;;;;;;20.69;49.96;102026.06;20807663;28;20041;-71
2023/06/03 22:22:29;;;;;;;0.60;0.50;;;;;;;20.66;49.90;102026.31;20806417;28;20125;-71
2023/06/03 22:32:30;;;;;;;1.05;0.60;;;;;;;20.62;49.88;102027.56;20811807;28;20080;-71
2023/06/03 22:42:32;;;;;;;1.38;0.70;;;;;;;20.60;49.86;102021.44;20809802;28;20050;-71
2023/06/03 22:52:34;;;;;;;0.50;0.50;;;;;;;20.58;49.80;102029.69;20807030;28;20072;-71
2023/06/03 23:02:35;;;;;;;0.65;0.60;;;;;;;20.55;49.87;102029.94;20815254;28;20056;-71
2023/06/03 23:12:37;;;;;;;0.95;0.50;;;;;;;20.45;49.77;102018.13;20814577;28;20049;-71
2023/06/03 23:22:38;;;;;;;0.60;0.60;;;;;;;20.52;49.90;102023.91;20816941;28;20377;-71
2023/06/03 23:32:41;;;;;;;0.85;0.60;;;;;;;20.50;50.06;102024.03;20818596;28;20041;-71
2023/06/03 23:42:42;;;;;;;1.42;0.70;;;;;;;20.49;50.17;102024.16;20817006;28;20053;-71
2023/06/03 23:52:44;;;;;;;1.08;0.60;;;;;;;20.48;50.35;102027.84;20817281;28;20129;-71
